Time;durP1;ratioP1;P1;durP2;ratioP2;P2;SDS_P1;SDS_P2;PMS_P1;PMS_P2;Temp;Humidity;BMP_temperature;BMP_pressure;BME280_temperature;BME280_humidity;BME280_pressure;Samples;Min_cycle;Max_cycle;Signal;HPM_P1;HPM_P2
2021/10/23 00:00:04;;;;;;;;;;;8.80;92.40;9.20;100414.00;;;;345658;28;91179;-89
2021/10/23 00:00:16;;;;;;;;;;;8.80;92.70;9.30;100415.00;;;;344963;28;82562;-89
2021/10/23 00:00:28;;;;;;;;;;;8.80;92.40;9.20;100422.00;;;;345692;28;90188;-88
2021/10/23 00:00:40;;;;;;;;;;;8.80;92.50;9.20;100421.00;;;;346217;28;83449;-89
2021/10/23 00:00:52;;;;;;;;;;;8.80;92.40;9.20;100417.00;;;;343820;28;92284;-89
2021/10/23 00:01:04;;;;;;;;;;;8.80;92.40;9.20;100415.00;;;;346260;28;82292;-89
2021/10/23 00:01:15;;;;;;;;;;;8.80;92.40;9.20;100415.00;;;;345712;28;92343;-89
2021/10/23 00:01:27;;;;;;;;;;;8.80;92.50;9.20;100418.00;;;;344884;28;83403;-89
2021/10/23 00:01:39;;;;;;;;;;;8.80;92.50;9.20;100427.00;;;;343016;28;90818;-88
2021/10/23 00:01:51;;;;;;;;;;;8.80;92.50;9.20;100418.00;;;;344181;28;82618;-88
2021/10/23 00:02:03;;;;;;;;;;;8.80;92.50;9.20;100420.00;;;;343111;28;90558;-89
2021/10/23 00:02:14;;;;;;;;;;;8.80;92.50;9.10;100423.00;;;;343538;28;83415;-88
2021/10/23 00:02:26;;;;;;;;;;;8.80;92.50;9.20;100417.00;;;;343095;28;90075;-88
2021/10/23 00:02:38;;;;;;;;;;;8.80;92.50;9.20;100425.00;;;;344952;28;82278;-89
2021/10/23 00:02:50;;;;;;;;;;;8.80;92.60;9.20;100419.00;;;;343057;28;91011;-88
2021/10/23 00:03:02;;;;;;;;;;;8.80;92.60;9.20;100417.00;;;;343481;28;83481;-89
2021/10/23 00:03:14;;;;;;;;;;;8.80;92.60;9.20;100422.00;;;;342738;28;91506;-88
2021/10/23 00:03:26;;;;;;;;;;;8.80;92.60;9.20;100417.00;;;;343386;28;83437;-88
2021/10/23 00:03:37;;;;;;;;;;;8.80;92.50;9.20;100423.00;;;;343005;28;89019;-89
2021/10/23 00:03:49;;;;;;;;;;;8.80;92.50;9.20;100419.00;;;;346022;28;83497;-88
2021/10/23 00:04:01;;;;;;;;;;;8.80;92.50;9.20;100423.00;;;;345866;28;91430;-88
2021/10/23 00:04:13;;;;;;;;;;;8.80;92.50;9.20;100420.00;;;;346191;28;82534;-89
2021/10/23 00:04:25;;;;;;;;;;;8.80;92.50;9.20;100413.00;;;;344346;28;91736;-88
2021/10/23 00:04:37;;;;;;;;;;;8.80;92.50;9.20;100415.00;;;;343280;28;83406;-88
2021/10/23 00:04:48;;;;;;;;;;;8.80;92.50;9.20;100412.00;;;;346918;28;89502;-88
2021/10/23 00:05:01;;;;;;;;;;;8.80;92.40;9.10;100418.00;;;;343418;28;83543;-89
2021/10/23 00:05:12;;;;;;;;;;;8.80;92.50;9.10;100419.00;;;;344240;28;91225;-88
2021/10/23 00:05:24;;;;;;;;;;;8.80;92.50;9.20;100418.00;;;;346343;28;82376;-88
2021/10/23 00:05:36;;;;;;;;;;;8.80;92.50;9.20;100422.00;;;;345901;28;90349;-89
2021/10/23 00:05:48;;;;;;;;;;;8.80;92.60;9.20;100429.00;;;;344823;28;83386;-89
2021/10/23 00:06:00;;;;;;;;;;;8.80;92.60;9.20;100411.00;;;;344261;28;90566;-89
2021/10/23 00:06:12;;;;;;;;;;;8.80;92.50;9.20;100418.00;;;;343392;28;83568;-88
2021/10/23 00:06:24;;;;;;;;;;;8.80;92.50;9.20;100421.00;;;;345706;28;91405;-88
2021/10/23 00:06:35;;;;;;;;;;;8.80;92.50;9.10;100422.00;;;;343307;28;83374;-89
2021/10/23 00:06:47;;;;;;;;;;;8.80;92.50;9.20;100429.00;;;;342413;28;90419;-89
2021/10/23 00:06:59;;;;;;;;;;;8.80;92.50;9.10;100424.00;;;;342047;28;83448;-88
2021/10/23 00:07:11;;;;;;;;;;;8.80;92.50;9.10;100427.00;;;;345782;28;92238;-89
2021/10/23 00:07:23;;;;;;;;;;;8.80;92.60;9.10;100421.00;;;;344711;28;83359;-89
2021/10/23 00:07:35;;;;;;;;;;;8.80;92.70;9.10;100419.00;;;;343030;28;91333;-89
2021/10/23 00:07:47;;;;;;;;;;;8.80;92.70;9.10;100420.00;;;;346045;28;83252;-89
2021/10/23 00:07:59;;;;;;;;;;;8.80;92.70;9.10;100424.00;;;;343095;28;91331;-88
2021/10/23 00:08:11;;;;;;;;;;;8.80;92.60;9.10;100423.00;;;;343311;28;83927;-88
2021/10/23 00:08:22;;;;;;;;;;;8.80;92.60;9.10;100422.00;;;;344407;28;91394;-88
2021/10/23 00:08:34;;;;;;;;;;;8.70;92.60;9.10;100420.00;;;;345014;28;83300;-89
2021/10/23 00:08:46;;;;;;;;;;;8.70;92.60;9.10;100416.00;;;;344493;28;91563;-88
2021/10/23 00:08:58;;;;;;;;;;;8.70;92.60;9.10;100424.00;;;;346205;28;83344;-89
2021/10/23 00:09:11;;;;;;;;;;;8.80;92.60;9.00;100429.00;;;;342970;28;91331;-88
2021/10/23 00:09:23;;;;;;;;;;;8.70;92.60;9.10;100425.00;;;;346237;28;83378;-89
2021/10/23 00:09:35;;;;;;;;;;;8.70;92.60;9.10;100424.00;;;;344227;28;89845;-89
2021/10/23 00:09:47;;;;;;;;;;;8.70;92.60;9.20;100426.00;;;;344720;28;83454;-88
2021/10/23 00:09:58;;;;;;;;;;;8.70;92.60;9.10;100423.00;;;;344242;28;90508;-88
2021/10/23 00:10:10;;;;;;;;;;;8.70;92.70;9.10;100426.00;;;;346306;28;83339;-88
2021/10/23 00:10:22;;;;;;;;;;;8.70;92.70;9.00;100432.00;;;;344493;28;91188;-88
2021/10/23 00:10:34;;;;;;;;;;;8.70;92.70;9.00;100433.00;;;;344953;28;82541;-89
2021/10/23 00:10:45;;;;;;;;;;;8.70;92.70;9.00;100431.00;;;;341799;28;91262;-89
2021/10/23 00:10:57;;;;;;;;;;;8.70;92.70;9.00;100427.00;;;;346289;28;83346;-89
2021/10/23 00:11:09;;;;;;;;;;;8.70;92.70;9.00;100432.00;;;;344428;28;92549;-89
2021/10/23 00:11:21;;;;;;;;;;;8.70;92.70;9.10;100429.00;;;;343483;28;83291;-89
2021/10/23 00:11:33;;;;;;;;;;;8.70;92.80;9.00;100424.00;;;;345823;28;90146;-89
2021/10/23 00:11:44;;;;;;;;;;;8.70;92.80;9.00;100430.00;;;;344793;28;83424;-89
2021/10/23 00:11:56;;;;;;;;;;;8.70;92.80;9.00;100430.00;;;;343131;28;91365;-89
2021/10/23 00:12:08;;;;;;;;;;;8.70;92.80;9.00;100431.00;;;;343468;28;83428;-89
2021/10/23 00:12:20;;;;;;;;;;;8.70;92.80;9.00;100432.00;;;;344318;28;90867;-89
2021/10/23 00:12:32;;;;;;;;;;;8.70;92.80;9.00;100432.00;;;;347604;28;83538;-89
2021/10/23 00:12:44;;;;;;;;;;;8.70;92.80;9.10;100421.00;;;;344380;28;91091;-89
2021/10/23 00:12:56;;;;;;;;;;;8.60;92.70;9.00;100430.00;;;;343457;28;83381;-89
2021/10/23 00:13:07;;;;;;;;;;;8.60;92.80;9.00;100436.00;;;;345664;28;91628;-88
2021/10/23 00:13:19;;;;;;;;;;;8.60;92.90;9.00;100430.00;;;;344787;28;82561;-89
2021/10/23 00:13:31;;;;;;;;;;;8.60;92.90;9.00;100424.00;;;;345832;28;91304;-88
2021/10/23 00:13:43;;;;;;;;;;;8.60;92.90;9.00;100429.00;;;;344720;28;83334;-89
2021/10/23 00:13:55;;;;;;;;;;;8.60;92.90;9.10;100419.00;;;;344482;28;91093;-88
2021/10/23 00:14:06;;;;;;;;;;;8.60;92.90;9.10;100430.00;;;;345968;28;82619;-89
2021/10/23 00:14:18;;;;;;;;;;;8.60;92.80;9.10;100422.00;;;;345792;28;90249;-89
2021/10/23 00:14:30;;;;;;;;;;;8.60;92.90;9.10;100431.00;;;;346249;28;83294;-89
2021/10/23 00:14:42;;;;;;;;;;;8.60;92.90;9.00;100432.00;;;;345829;28;91949;-89
2021/10/23 00:14:54;;;;;;;;;;;8.60;92.90;9.00;100426.00;;;;344925;28;83395;-89
2021/10/23 00:15:06;;;;;;;;;;;8.60;92.90;9.10;100430.00;;;;344385;28;91130;-88
2021/10/23 00:15:18;;;;;;;;;;;8.60;92.90;9.10;100426.00;;;;345930;28;83510;-88
2021/10/23 00:15:30;;;;;;;;;;;8.60;92.90;9.00;100424.00;;;;345861;28;89743;-88
2021/10/23 00:15:41;;;;;;;;;;;8.60;92.90;9.10;100424.00;;;;344859;28;82570;-89
2021/10/23 00:15:54;;;;;;;;;;;8.60;92.90;9.10;100425.00;;;;343028;28;90584;-89
2021/10/23 00:16:06;;;;;;;;;;;8.70;92.90;9.00;100430.00;;;;344853;28;83465;-89
2021/10/23 00:16:18;;;;;;;;;;;8.60;92.80;9.10;100428.00;;;;346999;28;92545;-90
2021/10/23 00:16:30;;;;;;;;;;;8.60;92.90;9.10;100432.00;;;;344781;28;83504;-89
2021/10/23 00:16:42;;;;;;;;;;;8.60;92.80;9.10;100433.00;;;;344450;28;91330;-89
2021/10/23 00:16:54;;;;;;;;;;;8.60;92.80;9.10;100426.00;;;;348765;27;83494;-89
2021/10/23 00:17:05;;;;;;;;;;;8.60;92.80;9.10;100434.00;;;;344300;28;92429;-89
2021/10/23 00:17:18;;;;;;;;;;;8.60;92.80;9.10;100434.00;;;;346252;28;83273;-89
2021/10/23 00:17:30;;;;;;;;;;;8.60;92.70;9.10;100435.00;;;;347776;27;90330;-89
2021/10/23 00:17:42;;;;;;;;;;;8.60;92.80;9.00;100437.00;;;;344869;28;83498;-89
2021/10/23 00:17:53;;;;;;;;;;;8.60;92.80;9.00;100422.00;;;;345974;28;88816;-89
2021/10/23 00:18:05;;;;;;;;;;;8.60;92.80;9.10;100431.00;;;;346241;28;83295;-89
2021/10/23 00:18:17;;;;;;;;;;;8.60;92.80;9.10;100421.00;;;;345645;28;91512;-89
2021/10/23 00:18:29;;;;;;;;;;;8.60;92.80;9.00;100422.00;;;;348998;27;83441;-89
2021/10/23 00:18:41;;;;;;;;;;;8.60;92.80;9.00;100426.00;;;;344424;28;90861;-89
2021/10/23 00:18:53;;;;;;;;;;;8.60;92.80;9.00;100423.00;;;;342150;28;83491;-89
2021/10/23 00:19:05;;;;;;;;;;;8.60;92.80;9.10;100416.00;;;;344040;28;92432;-89
2021/10/23 00:19:17;;;;;;;;;;;8.60;92.80;9.10;100422.00;;;;343436;28;82500;-89
2021/10/23 00:19:28;;;;;;;;;;;8.60;92.80;9.10;100425.00;;;;344481;28;91046;-89
2021/10/23 00:19:40;;;;;;;;;;;8.60;92.70;9.10;100417.00;;;;344944;28;82532;-89
2021/10/23 00:19:52;;;;;;;;;;;8.60;92.70;9.00;100424.00;;;;343152;28;90106;-90
2021/10/23 00:20:05;;;;;;;;;;;8.70;92.80;9.00;100421.00;;;;344625;28;83351;-89
2021/10/23 00:20:17;;;;;;;;;;;8.60;93.10;9.10;100413.00;;;;347196;28;91642;-89
2021/10/23 00:20:28;;;;;;;;;;;8.70;92.80;9.10;100413.00;;;;344834;28;83316;-89
2021/10/23 00:20:40;;;;;;;;;;;8.70;92.80;9.10;100418.00;;;;341662;28;91648;-88
2021/10/23 00:20:52;;;;;;;;;;;8.70;92.80;9.10;100419.00;;;;346285;28;82360;-89
2021/10/23 00:21:04;;;;;;;;;;;8.60;92.80;9.10;100413.00;;;;342709;28;90761;-89
2021/10/23 00:21:16;;;;;;;;;;;8.60;92.80;9.10;100410.00;;;;344890;28;82477;-89
2021/10/23 00:21:28;;;;;;;;;;;8.60;92.80;9.10;100419.00;;;;343085;28;90686;-89
2021/10/23 00:21:40;;;;;;;;;;;8.70;92.80;9.00;100418.00;;;;342039;28;83413;-89
2021/10/23 00:21:51;;;;;;;;;;;8.60;92.80;9.10;100420.00;;;;343024;28;91232;-89
2021/10/23 00:22:03;;;;;;;;;;;8.70;92.80;9.00;100413.00;;;;346305;28;83297;-89
2021/10/23 00:22:15;;;;;;;;;;;8.60;92.80;9.00;100424.00;;;;340352;28;90950;-89
2021/10/23 00:22:29;;;;;;;;;;;8.60;92.80;9.00;100417.00;;;;343538;28;82537;-89
2021/10/23 00:22:41;;;;;;;;;;;8.60;92.80;9.00;100425.00;;;;344399;28;92006;-89
2021/10/23 00:22:53;;;;;;;;;;;8.60;93.10;9.00;100413.00;;;;344281;28;82592;-89
2021/10/23 00:23:05;;;;;;;;;;;8.60;92.80;9.10;100423.00;;;;344306;28;91062;-89
2021/10/23 00:23:17;;;;;;;;;;;8.70;92.80;9.00;100427.00;;;;342094;28;83250;-89
2021/10/23 00:23:28;;;;;;;;;;;8.60;92.70;8.90;100421.00;;;;341924;28;89814;-89
2021/10/23 00:23:40;;;;;;;;;;;8.60;92.70;9.00;100420.00;;;;342020;28;84185;-90
2021/10/23 00:23:52;;;;;;;;;;;8.60;92.70;9.00;100418.00;;;;344388;28;89058;-90
2021/10/23 00:24:04;;;;;;;;;;;8.60;92.80;9.00;100419.00;;;;343412;28;82507;-89
2021/10/23 00:24:16;;;;;;;;;;;8.60;92.70;9.10;100419.00;;;;341620;28;91072;-89
2021/10/23 00:24:27;;;;;;;;;;;8.60;92.70;9.10;100409.00;;;;343449;28;83426;-89
2021/10/23 00:24:39;;;;;;;;;;;8.60;92.70;9.10;100417.00;;;;344409;28;91163;-89
2021/10/23 00:24:51;;;;;;;;;;;8.60;92.80;9.00;100422.00;;;;343385;28;82536;-89
2021/10/23 00:25:03;;;;;;;;;;;8.60;92.80;9.10;100423.00;;;;344332;28;92466;-89
2021/10/23 00:25:15;;;;;;;;;;;8.70;92.80;9.00;100416.00;;;;348801;27;83624;-89
2021/10/23 00:25:27;;;;;;;;;;;8.60;92.80;9.00;100411.00;;;;343073;28;91248;-89
2021/10/23 00:25:38;;;;;;;;;;;8.60;92.80;9.00;100421.00;;;;344832;28;82444;-89
2021/10/23 00:25:50;;;;;;;;;;;8.60;92.70;9.00;100413.00;;;;344334;28;90364;-89
2021/10/23 00:26:02;;;;;;;;;;;8.60;92.70;9.00;100419.00;;;;344909;28;83275;-89
2021/10/23 00:26:14;;;;;;;;;;;8.60;92.70;8.90;100422.00;;;;345819;28;88623;-89
2021/10/23 00:26:26;;;;;;;;;;;8.60;92.80;9.00;100418.00;;;;349007;27;83373;-89
2021/10/23 00:26:38;;;;;;;;;;;8.60;92.90;9.00;100411.00;;;;344522;28;90324;-89
2021/10/23 00:26:50;;;;;;;;;;;8.60;92.90;9.00;100422.00;;;;346280;28;82396;-89
2021/10/23 00:27:02;;;;;;;;;;;8.60;92.90;9.00;100417.00;;;;342927;28;91081;-88
2021/10/23 00:27:14;;;;;;;;;;;8.60;92.80;9.00;100417.00;;;;343232;28;83281;-89
2021/10/23 00:27:26;;;;;;;;;;;8.60;92.80;9.00;100416.00;;;;345842;28;88701;-89
2021/10/23 00:27:37;;;;;;;;;;;8.60;92.80;8.90;100410.00;;;;344761;28;83527;-88
2021/10/23 00:27:49;;;;;;;;;;;8.60;92.80;9.00;100424.00;;;;345976;28;91247;-89
2021/10/23 00:28:01;;;;;;;;;;;8.60;92.90;9.00;100416.00;;;;343463;28;83407;-89
2021/10/23 00:28:13;;;;;;;;;;;8.60;92.80;9.00;100421.00;;;;347102;28;91253;-89
2021/10/23 00:28:25;;;;;;;;;;;8.60;92.80;9.00;100420.00;;;;344729;28;83412;-89
2021/10/23 00:28:37;;;;;;;;;;;8.60;93.10;8.90;100428.00;;;;341726;28;91403;-89
2021/10/23 00:28:49;;;;;;;;;;;8.60;92.90;9.00;100416.00;;;;343461;28;83262;-89
2021/10/23 00:29:01;;;;;;;;;;;8.60;92.80;9.00;100414.00;;;;347108;27;91139;-88
2021/10/23 00:29:13;;;;;;;;;;;8.60;92.80;9.00;100422.00;;;;344883;28;82486;-89
2021/10/23 00:29:24;;;;;;;;;;;8.60;92.80;9.00;100420.00;;;;343091;28;90027;-90
2021/10/23 00:29:37;;;;;;;;;;;8.60;92.80;8.90;100417.00;;;;346157;28;83364;-89
2021/10/23 00:29:49;;;;;;;;;;;8.60;92.80;9.00;100421.00;;;;344407;28;91835;-90
2021/10/23 00:30:00;;;;;;;;;;;8.60;92.80;9.00;100417.00;;;;342208;28;83283;-89
2021/10/23 00:30:13;;;;;;;;;;;8.60;92.80;9.00;100426.00;;;;345745;28;89428;-89
2021/10/23 00:30:25;;;;;;;;;;;8.60;92.80;9.00;100423.00;;;;343487;28;83374;-89
2021/10/23 00:30:36;;;;;;;;;;;8.60;92.80;8.90;100418.00;;;;342971;28;89025;-89
2021/10/23 00:30:48;;;;;;;;;;;8.60;92.90;8.90;100421.00;;;;344878;28;83377;-89
2021/10/23 00:31:00;;;;;;;;;;;8.60;92.90;8.90;100416.00;;;;345569;28;92749;-89
2021/10/23 00:31:12;;;;;;;;;;;8.60;92.90;9.00;100421.00;;;;346145;28;83753;-89
2021/10/23 00:31:24;;;;;;;;;;;8.60;92.90;9.00;100420.00;;;;343088;28;90160;-89
2021/10/23 00:31:36;;;;;;;;;;;8.60;92.90;9.00;100416.00;;;;343436;28;83367;-89
2021/10/23 00:31:48;;;;;;;;;;;8.60;92.90;8.90;100423.00;;;;345764;28;91010;-90
2021/10/23 00:31:59;;;;;;;;;;;8.60;92.90;8.80;100417.00;;;;344815;28;83454;-89
2021/10/23 00:32:11;;;;;;;;;;;8.50;92.90;8.80;100420.00;;;;344402;28;91862;-90
2021/10/23 00:32:24;;;;;;;;;;;8.50;92.90;8.80;100424.00;;;;344795;28;83387;-89
2021/10/23 00:32:37;;;;;;;;;;;8.50;92.90;8.90;100408.00;;;;343079;28;91716;-89
2021/10/23 00:32:50;;;;;;;;;;;8.50;92.90;8.90;100413.00;;;;346235;28;83460;-90
2021/10/23 00:33:02;;;;;;;;;;;8.50;92.90;9.00;100420.00;;;;345567;28;92881;-89
2021/10/23 00:33:14;;;;;;;;;;;8.50;92.90;8.90;100421.00;;;;342254;28;83378;-89
2021/10/23 00:33:26;;;;;;;;;;;8.50;92.90;8.90;100421.00;;;;343090;28;90574;-89
2021/10/23 00:33:38;;;;;;;;;;;8.50;92.90;8.90;100421.00;;;;346297;28;83476;-90
2021/10/23 00:33:50;;;;;;;;;;;8.50;92.90;8.90;100423.00;;;;344266;28;90068;-89
2021/10/23 00:34:02;;;;;;;;;;;8.50;92.90;8.90;100420.00;;;;347653;28;83517;-89
2021/10/23 00:34:14;;;;;;;;;;;8.50;92.90;8.90;100414.00;;;;345532;28;91077;-89
2021/10/23 00:34:25;;;;;;;;;;;8.50;92.80;8.90;100408.00;;;;343447;28;83450;-89
2021/10/23 00:34:38;;;;;;;;;;;8.60;92.90;9.00;100418.00;;;;344507;28;90178;-89
2021/10/23 00:34:50;;;;;;;;;;;8.50;92.80;9.00;100414.00;;;;344927;28;83212;-89
2021/10/23 00:35:03;;;;;;;;;;;8.60;92.90;9.00;100419.00;;;;344130;28;91136;-89
2021/10/23 00:35:14;;;;;;;;;;;8.60;92.90;9.00;100412.00;;;;344935;28;83387;-89
2021/10/23 00:35:27;;;;;;;;;;;8.60;92.90;9.00;100417.00;;;;341710;28;87948;-89
2021/10/23 00:35:39;;;;;;;;;;;8.60;92.90;9.00;100422.00;;;;344731;28;83372;-90
2021/10/23 00:35:50;;;;;;;;;;;8.60;92.80;9.00;100422.00;;;;347291;28;90400;-89
2021/10/23 00:36:02;;;;;;;;;;;8.60;92.80;9.00;100414.00;;;;346228;28;83379;-89
2021/10/23 00:36:14;;;;;;;;;;;8.60;92.90;9.00;100408.00;;;;343120;28;90276;-89
2021/10/23 00:36:26;;;;;;;;;;;8.50;92.90;9.00;100416.00;;;;342029;28;83844;-89
2021/10/23 00:36:38;;;;;;;;;;;8.60;92.90;9.00;100407.00;;;;344469;28;90168;-89
2021/10/23 00:36:50;;;;;;;;;;;8.60;92.90;9.00;100418.00;;;;343919;28;83648;-89
2021/10/23 00:37:02;;;;;;;;;;;8.60;92.80;9.00;100415.00;;;;346989;28;92468;-88
2021/10/23 00:37:14;;;;;;;;;;;8.60;92.80;8.90;100412.00;;;;344848;28;83395;-89
2021/10/23 00:37:26;;;;;;;;;;;8.60;92.90;8.90;100415.00;;;;344428;28;91515;-90
2021/10/23 00:37:37;;;;;;;;;;;8.60;92.90;9.00;100415.00;;;;347547;28;82529;-89
2021/10/23 00:37:49;;;;;;;;;;;8.60;92.90;9.00;100411.00;;;;343076;28;91787;-89
2021/10/23 00:38:01;;;;;;;;;;;8.60;92.90;9.00;100412.00;;;;346164;28;83295;-89
2021/10/23 00:38:13;;;;;;;;;;;8.60;92.90;9.00;100414.00;;;;343112;28;88872;-90
2021/10/23 00:38:24;;;;;;;;;;;8.60;92.80;8.90;100415.00;;;;343389;28;83435;-90
2021/10/23 00:38:37;;;;;;;;;;;8.60;92.90;8.90;100418.00;;;;347198;28;91671;-89
2021/10/23 00:38:49;;;;;;;;;;;8.60;92.90;8.90;100416.00;;;;346060;28;83430;-89
2021/10/23 00:39:01;;;;;;;;;;;8.60;92.80;9.00;100415.00;;;;344230;28;92189;-89
2021/10/23 00:39:13;;;;;;;;;;;8.60;92.80;9.00;100415.00;;;;346213;28;83285;-89
2021/10/23 00:39:24;;;;;;;;;;;8.60;92.80;9.00;100419.00;;;;343021;28;91272;-89
2021/10/23 00:39:36;;;;;;;;;;;8.60;92.80;8.90;100409.00;;;;346181;28;82495;-89
2021/10/23 00:39:51;;;;;;;;;;;8.60;92.90;8.90;100413.00;;;;346962;27;91776;-89
2021/10/23 00:40:03;;;;;;;;;;;8.60;92.90;8.90;100422.00;;;;344876;28;83141;-89
2021/10/23 00:40:15;;;;;;;;;;;8.60;92.80;8.80;100419.00;;;;345821;28;91527;-89
2021/10/23 00:40:28;;;;;;;;;;;8.60;92.80;8.90;100424.00;;;;346128;28;83354;-89
2021/10/23 00:40:39;;;;;;;;;;;8.60;92.80;8.90;100412.00;;;;342897;28;90051;-89
2021/10/23 00:40:51;;;;;;;;;;;8.50;92.90;8.90;100422.00;;;;344818;28;83340;-90
2021/10/23 00:41:03;;;;;;;;;;;8.60;92.90;9.00;100419.00;;;;344269;28;91121;-89
2021/10/23 00:41:15;;;;;;;;;;;8.60;92.90;9.00;100412.00;;;;346166;28;83158;-90
2021/10/23 00:41:26;;;;;;;;;;;8.60;92.90;8.90;100412.00;;;;345808;28;90530;-89
2021/10/23 00:41:39;;;;;;;;;;;8.60;92.90;9.00;100417.00;;;;344754;28;83368;-89
2021/10/23 00:41:51;;;;;;;;;;;8.60;92.90;8.90;100419.00;;;;344369;28;92176;-90
2021/10/23 00:42:03;;;;;;;;;;;8.60;92.90;9.00;100413.00;;;;344858;28;82451;-89
2021/10/23 00:42:15;;;;;;;;;;;8.50;92.90;9.00;100416.00;;;;344402;28;92182;-89
2021/10/23 00:42:27;;;;;;;;;;;8.50;92.80;9.00;100412.00;;;;346227;28;83514;-89
2021/10/23 00:42:38;;;;;;;;;;;8.60;92.90;8.90;100418.00;;;;345850;28;91239;-89
2021/10/23 00:42:52;;;;;;;;;;;8.60;92.90;9.00;100421.00;;;;340762;28;83245;-89
2021/10/23 00:43:04;;;;;;;;;;;8.60;92.90;9.00;100421.00;;;;344117;28;91472;-89
2021/10/23 00:43:15;;;;;;;;;;;8.60;92.90;9.00;100421.00;;;;345104;28;83303;-89
2021/10/23 00:43:27;;;;;;;;;;;8.60;93.20;8.90;100405.00;;;;345897;28;91805;-89
2021/10/23 00:43:41;;;;;;;;;;;8.60;92.90;8.90;100416.00;;;;346268;28;83374;-90
2021/10/23 00:43:52;;;;;;;;;;;8.60;93.00;9.00;100415.00;;;;344516;28;91335;-89
2021/10/23 00:44:04;;;;;;;;;;;8.60;92.90;8.90;100414.00;;;;344965;28;83277;-89
2021/10/23 00:44:28;;;;;;;;;;;8.60;92.90;9.00;100419.00;;;;345825;28;90039;-89
2021/10/23 00:44:41;;;;;;;;;;;8.50;92.80;8.90;100421.00;;;;347603;28;83322;-89
2021/10/23 00:44:53;;;;;;;;;;;8.60;92.90;8.90;100418.00;;;;344402;28;90936;-90
2021/10/23 00:45:05;;;;;;;;;;;8.60;92.90;8.90;100413.00;;;;346040;28;82444;-89
2021/10/23 00:45:17;;;;;;;;;;;8.50;93.00;8.90;100409.00;;;;342916;28;92479;-89
2021/10/23 00:45:29;;;;;;;;;;;8.50;92.90;9.00;100416.00;;;;344578;28;83468;-89
2021/10/23 00:45:41;;;;;;;;;;;8.60;92.90;8.90;100409.00;;;;344425;28;90321;-89
2021/10/23 00:45:52;;;;;;;;;;;8.60;92.90;8.90;100411.00;;;;344840;28;82455;-89
2021/10/23 00:46:04;;;;;;;;;;;8.50;92.90;8.90;100407.00;;;;344390;28;92252;-89
2021/10/23 00:46:16;;;;;;;;;;;8.60;92.90;8.90;100410.00;;;;346159;28;83475;-89
2021/10/23 00:46:28;;;;;;;;;;;8.60;92.90;8.90;100410.00;;;;345775;28;89155;-89
2021/10/23 00:46:40;;;;;;;;;;;8.50;92.80;9.00;100414.00;;;;345963;28;83242;-89
2021/10/23 00:46:51;;;;;;;;;;;8.50;93.10;8.90;100422.00;;;;345827;28;90457;-90
2021/10/23 00:47:12;;;;;;;;;;;8.50;92.80;8.90;100414.00;;;;344785;28;82575;-89
2021/10/23 00:47:24;;;;;;;;;;;8.50;92.80;8.80;100415.00;;;;345753;28;91631;-90
2021/10/23 00:47:36;;;;;;;;;;;8.50;92.90;8.80;100417.00;;;;344654;28;83566;-89
2021/10/23 00:47:48;;;;;;;;;;;8.50;92.90;8.90;100405.00;;;;345657;28;90895;-89
2021/10/23 00:48:00;;;;;;;;;;;8.50;93.00;8.90;100407.00;;;;343445;28;83261;-89
2021/10/23 00:48:11;;;;;;;;;;;8.50;92.90;8.90;100411.00;;;;342982;28;91634;-90
2021/10/23 00:48:24;;;;;;;;;;;8.50;92.90;9.00;100415.00;;;;347594;28;83366;-88
2021/10/23 00:48:35;;;;;;;;;;;8.50;92.90;8.90;100413.00;;;;342904;28;91508;-89
2021/10/23 00:48:47;;;;;;;;;;;8.50;92.90;8.90;100415.00;;;;346915;28;83263;-89
2021/10/23 00:48:59;;;;;;;;;;;8.50;92.90;8.90;100420.00;;;;342963;28;91510;-90
2021/10/23 00:49:11;;;;;;;;;;;8.50;92.90;8.90;100417.00;;;;343352;28;83417;-89
2021/10/23 00:49:22;;;;;;;;;;;8.50;92.90;8.90;100414.00;;;;344438;28;92646;-90
2021/10/23 00:49:35;;;;;;;;;;;8.50;92.90;8.90;100409.00;;;;346272;28;83362;-89
2021/10/23 00:49:50;;;;;;;;;;;8.50;92.90;8.90;100413.00;;;;344368;28;90393;-89
2021/10/23 00:50:03;;;;;;;;;;;8.50;92.90;8.90;100416.00;;;;346263;28;82471;-89
2021/10/23 00:50:14;;;;;;;;;;;8.50;92.80;9.00;100412.00;;;;343072;28;89265;-90
2021/10/23 00:50:26;;;;;;;;;;;8.50;92.80;9.00;100419.00;;;;342113;28;83424;-89
2021/10/23 00:50:38;;;;;;;;;;;8.50;92.80;9.00;100421.00;;;;341634;28;91517;-89
2021/10/23 00:50:50;;;;;;;;;;;8.50;92.80;9.00;100414.00;;;;343447;28;83330;-89
2021/10/23 00:51:02;;;;;;;;;;;8.50;92.80;9.00;100414.00;;;;343088;28;90369;-89
2021/10/23 00:51:14;;;;;;;;;;;8.50;92.90;8.90;100408.00;;;;344762;28;83555;-90
2021/10/23 00:51:26;;;;;;;;;;;8.50;92.80;8.90;100405.00;;;;344666;28;91413;-89
2021/10/23 00:51:38;;;;;;;;;;;8.50;92.80;8.90;100412.00;;;;344653;28;83237;-89
2021/10/23 00:51:49;;;;;;;;;;;8.50;92.80;9.00;100414.00;;;;344816;28;91385;-88
2021/10/23 00:52:03;;;;;;;;;;;8.50;92.80;8.90;100418.00;;;;344821;28;83189;-89
2021/10/23 00:52:14;;;;;;;;;;;8.50;92.90;8.90;100418.00;;;;343060;28;89054;-89
2021/10/23 00:52:26;;;;;;;;;;;8.50;92.90;8.90;100415.00;;;;344814;28;82524;-90
2021/10/23 00:52:38;;;;;;;;;;;8.50;92.80;8.90;100413.00;;;;342990;28;91431;-89
2021/10/23 00:52:50;;;;;;;;;;;8.50;92.90;8.80;100424.00;;;;346280;28;83302;-89
2021/10/23 00:53:02;;;;;;;;;;;8.50;92.80;8.80;100412.00;;;;340300;28;91484;-90
2021/10/23 00:53:14;;;;;;;;;;;8.50;92.80;8.90;100419.00;;;;346223;28;83245;-89
2021/10/23 00:53:26;;;;;;;;;;;8.50;92.90;8.90;100420.00;;;;342980;28;92229;-89
2021/10/23 00:53:38;;;;;;;;;;;8.50;92.90;8.90;100417.00;;;;343392;28;83325;-89
2021/10/23 00:53:49;;;;;;;;;;;8.50;92.90;8.90;100411.00;;;;344443;28;91347;-89
2021/10/23 00:54:01;;;;;;;;;;;8.50;92.90;8.90;100418.00;;;;344873;28;82265;-89
2021/10/23 00:54:13;;;;;;;;;;;8.50;92.90;8.90;100413.00;;;;345715;28;90689;-89
2021/10/23 00:54:26;;;;;;;;;;;8.50;92.80;8.90;100411.00;;;;348851;27;83490;-90
2021/10/23 00:54:38;;;;;;;;;;;8.50;92.80;8.90;100416.00;;;;344383;28;90689;-89
2021/10/23 00:54:50;;;;;;;;;;;8.50;92.80;8.90;100421.00;;;;347074;28;83732;-88
2021/10/23 00:55:03;;;;;;;;;;;8.50;92.80;8.90;100414.00;;;;345794;28;88753;-89
2021/10/23 00:55:14;;;;;;;;;;;8.50;92.80;8.90;100409.00;;;;342149;28;82471;-89
2021/10/23 00:55:26;;;;;;;;;;;8.50;92.80;8.90;100412.00;;;;344340;28;91364;-90
2021/10/23 00:55:39;;;;;;;;;;;8.50;92.80;8.90;100419.00;;;;346086;28;83340;-90
2021/10/23 00:55:51;;;;;;;;;;;8.50;92.80;8.90;100415.00;;;;343066;28;91439;-90
2021/10/23 00:56:03;;;;;;;;;;;8.50;92.80;8.90;100422.00;;;;344727;28;82652;-89
2021/10/23 00:56:16;;;;;;;;;;;8.50;92.80;8.90;100418.00;;;;340302;28;88714;-89
2021/10/23 00:56:28;;;;;;;;;;;8.50;92.90;8.90;100412.00;;;;344799;28;83322;-89
2021/10/23 00:56:40;;;;;;;;;;;8.50;92.80;8.90;100418.00;;;;344422;28;90522;-89
2021/10/23 00:56:52;;;;;;;;;;;8.50;92.80;8.90;100411.00;;;;343501;28;83377;-89
2021/10/23 00:57:04;;;;;;;;;;;8.50;92.80;8.90;100413.00;;;;344294;28;91281;-89
2021/10/23 00:57:16;;;;;;;;;;;8.50;92.90;8.90;100420.00;;;;346177;28;82374;-90
2021/10/23 00:57:29;;;;;;;;;;;8.50;92.90;8.90;100421.00;;;;342956;28;92131;-89
2021/10/23 00:57:41;;;;;;;;;;;8.50;92.80;8.90;100415.00;;;;344768;28;82518;-90
2021/10/23 00:57:53;;;;;;;;;;;8.50;92.80;8.90;100416.00;;;;344451;28;91743;-89
2021/10/23 00:58:04;;;;;;;;;;;8.50;92.90;8.80;100412.00;;;;344908;28;82538;-89
2021/10/23 00:58:16;;;;;;;;;;;8.50;92.90;8.90;100419.00;;;;345725;28;91413;-90
2021/10/23 00:58:28;;;;;;;;;;;8.50;92.80;8.90;100412.00;;;;342091;28;83396;-89
2021/10/23 00:58:40;;;;;;;;;;;8.50;92.80;8.90;100412.00;;;;345727;28;91216;-90
2021/10/23 00:58:52;;;;;;;;;;;8.50;92.80;8.90;100420.00;;;;344873;28;82489;-91
2021/10/23 00:59:05;;;;;;;;;;;8.50;92.80;8.90;100412.00;;;;340363;28;90029;-90
2021/10/23 00:59:17;;;;;;;;;;;8.50;92.80;8.90;100417.00;;;;346215;28;83368;-90
2021/10/23 00:59:29;;;;;;;;;;;8.50;92.80;8.90;100420.00;;;;344341;28;92075;-88
2021/10/23 00:59:41;;;;;;;;;;;8.50;92.90;8.80;100412.00;;;;344795;28;83551;-90
2021/10/23 00:59:53;;;;;;;;;;;8.50;92.90;8.90;100416.00;;;;347113;28;91489;-89
2021/10/23 01:00:05;;;;;;;;;;;8.50;92.80;8.80;100418.00;;;;346224;28;82418;-90
2021/10/23 01:00:17;;;;;;;;;;;8.50;92.80;8.90;100417.00;;;;343095;28;89718;-89